Terminal Aerodrome Forecast
Issued by NWS

Home | Current Version | Previous Version | Text Only | Print | Product List | Glossary On
Versions: 1 2 3 4 5 6 7 8 9 10 11 12
000
FTUS43 KMPX 041120
TAFRWF
TAF
KRWF 041120Z 0412/0512 20005KT 3SM HZ SCT050 BKN250
     FM041400 19006KT 6SM HZ SCT050 BKN250
     FM041900 18010KT P6SM FEW050 SCT250
     FM050100 17007KT P6SM SKC=

USA.gov is the U.S. government's official web portal to all federal, state and local government web resources and services.